sensor_id;sensor_type;location;lat;lon;timestamp;temperature;humidity
9118;DHT22;4594;50.994;7.126;2023-02-04T00:02:22;10.70;54.10
9118;DHT22;4594;50.994;7.126;2023-02-04T00:04:47;10.70;54.00
9118;DHT22;4594;50.994;7.126;2023-02-04T00:07:13;10.80;54.00
9118;DHT22;4594;50.994;7.126;2023-02-04T00:09:40;10.80;54.00
9118;DHT22;4594;50.994;7.126;2023-02-04T00:12:06;10.70;53.90
9118;DHT22;4594;50.994;7.126;2023-02-04T00:14:34;10.80;53.90
9118;DHT22;4594;50.994;7.126;2023-02-04T00:17:00;10.70;53.90
9118;DHT22;4594;50.994;7.126;2023-02-04T00:19:26;10.70;53.80
9118;DHT22;4594;50.994;7.126;2023-02-04T00:21:51;10.80;53.90
9118;DHT22;4594;50.994;7.126;2023-02-04T00:24:17;10.70;53.80
9118;DHT22;4594;50.994;7.126;2023-02-04T00:26:43;10.70;53.80
9118;DHT22;4594;50.994;7.126;2023-02-04T00:29:08;10.70;53.80
9118;DHT22;4594;50.994;7.126;2023-02-04T00:31:34;10.70;53.80
9118;DHT22;4594;50.994;7.126;2023-02-04T00:34:00;10.70;53.70
9118;DHT22;4594;50.994;7.126;2023-02-04T00:36:25;10.70;53.70
9118;DHT22;4594;50.994;7.126;2023-02-04T00:38:51;10.70;53.70
9118;DHT22;4594;50.994;7.126;2023-02-04T00:41:17;10.80;53.80
9118;DHT22;4594;50.994;7.126;2023-02-04T00:43:42;10.80;53.80
9118;DHT22;4594;50.994;7.126;2023-02-04T00:46:08;10.70;53.60
9118;DHT22;4594;50.994;7.126;2023-02-04T00:48:34;10.80;53.70
9118;DHT22;4594;50.994;7.126;2023-02-04T00:51:00;10.80;53.60
9118;DHT22;4594;50.994;7.126;2023-02-04T00:53:26;10.70;53.50
9118;DHT22;4594;50.994;7.126;2023-02-04T00:55:52;10.70;53.40
9118;DHT22;4594;50.994;7.126;2023-02-04T00:58:18;10.70;53.40
9118;DHT22;4594;50.994;7.126;2023-02-04T01:00:43;10.70;53.40
9118;DHT22;4594;50.994;7.126;2023-02-04T01:03:09;10.70;53.40
9118;DHT22;4594;50.994;7.126;2023-02-04T01:05:35;10.70;53.30
9118;DHT22;4594;50.994;7.126;2023-02-04T01:08:00;10.70;53.30
9118;DHT22;4594;50.994;7.126;2023-02-04T01:10:27;10.70;53.20
9118;DHT22;4594;50.994;7.126;2023-02-04T01:12:53;10.70;53.20
9118;DHT22;4594;50.994;7.126;2023-02-04T01:15:18;10.70;53.30
9118;DHT22;4594;50.994;7.126;2023-02-04T01:17:44;10.70;53.20
9118;DHT22;4594;50.994;7.126;2023-02-04T01:20:10;10.70;53.20
9118;DHT22;4594;50.994;7.126;2023-02-04T01:22:36;10.70;53.30
9118;DHT22;4594;50.994;7.126;2023-02-04T01:25:02;10.70;53.20
9118;DHT22;4594;50.994;7.126;2023-02-04T01:27:28;10.70;53.10
9118;DHT22;4594;50.994;7.126;2023-02-04T01:29:54;10.70;53.10
9118;DHT22;4594;50.994;7.126;2023-02-04T01:32:19;10.60;53.10
9118;DHT22;4594;50.994;7.126;2023-02-04T01:34:45;10.70;53.20
9118;DHT22;4594;50.994;7.126;2023-02-04T01:37:11;10.60;53.10
9118;DHT22;4594;50.994;7.126;2023-02-04T01:39:36;10.70;53.10
9118;DHT22;4594;50.994;7.126;2023-02-04T01:42:02;10.70;53.00
9118;DHT22;4594;50.994;7.126;2023-02-04T01:44:28;10.60;53.00
9118;DHT22;4594;50.994;7.126;2023-02-04T01:46:54;10.60;53.00
9118;DHT22;4594;50.994;7.126;2023-02-04T01:49:21;10.60;52.90
9118;DHT22;4594;50.994;7.126;2023-02-04T01:51:47;10.60;52.90
9118;DHT22;4594;50.994;7.126;2023-02-04T01:54:13;10.60;52.80
9118;DHT22;4594;50.994;7.126;2023-02-04T01:56:43;10.60;52.80
9118;DHT22;4594;50.994;7.126;2023-02-04T01:59:13;10.60;52.60
9118;DHT22;4594;50.994;7.126;2023-02-04T02:01:51;10.60;52.70
9118;DHT22;4594;50.994;7.126;2023-02-04T02:04:37;10.60;52.10
9118;DHT22;4594;50.994;7.126;2023-02-04T02:07:04;10.60;52.70
9118;DHT22;4594;50.994;7.126;2023-02-04T02:09:32;10.60;52.70
9118;DHT22;4594;50.994;7.126;2023-02-04T02:12:00;10.60;52.60
9118;DHT22;4594;50.994;7.126;2023-02-04T02:14:27;10.60;52.70
9118;DHT22;4594;50.994;7.126;2023-02-04T02:16:53;10.70;52.90
9118;DHT22;4594;50.994;7.126;2023-02-04T02:19:29;10.60;52.80
9118;DHT22;4594;50.994;7.126;2023-02-04T02:22:22;10.60;52.20
9118;DHT22;4594;50.994;7.126;2023-02-04T02:24:49;10.60;51.80
9118;DHT22;4594;50.994;7.126;2023-02-04T02:27:15;10.60;52.80
9118;DHT22;4594;50.994;7.126;2023-02-04T02:29:41;10.60;52.80
9118;DHT22;4594;50.994;7.126;2023-02-04T02:32:08;10.60;52.80
9118;DHT22;4594;50.994;7.126;2023-02-04T02:34:36;10.60;52.80
9118;DHT22;4594;50.994;7.126;2023-02-04T02:37:04;10.60;52.80
9118;DHT22;4594;50.994;7.126;2023-02-04T02:39:31;10.60;52.90
9118;DHT22;4594;50.994;7.126;2023-02-04T02:41:58;10.60;52.80
9118;DHT22;4594;50.994;7.126;2023-02-04T02:44:24;10.60;52.80
9118;DHT22;4594;50.994;7.126;2023-02-04T02:46:52;10.60;52.80
9118;DHT22;4594;50.994;7.126;2023-02-04T02:49:19;10.50;52.80
9118;DHT22;4594;50.994;7.126;2023-02-04T02:51:46;10.60;52.90
9118;DHT22;4594;50.994;7.126;2023-02-04T02:54:20;10.60;52.90
9118;DHT22;4594;50.994;7.126;2023-02-04T02:56:49;10.60;52.30
9118;DHT22;4594;50.994;7.126;2023-02-04T02:59:16;10.50;52.80
9118;DHT22;4594;50.994;7.126;2023-02-04T03:01:43;10.50;52.70
9118;DHT22;4594;50.994;7.126;2023-02-04T03:04:13;10.60;52.80
9118;DHT22;4594;50.994;7.126;2023-02-04T03:06:40;10.50;52.70
9118;DHT22;4594;50.994;7.126;2023-02-04T03:09:06;10.50;52.70
9118;DHT22;4594;50.994;7.126;2023-02-04T03:11:33;10.50;52.80
9118;DHT22;4594;50.994;7.126;2023-02-04T03:13:59;10.50;52.70
9118;DHT22;4594;50.994;7.126;2023-02-04T03:16:29;10.50;52.80
9118;DHT22;4594;50.994;7.126;2023-02-04T03:18:59;10.50;52.70
9118;DHT22;4594;50.994;7.126;2023-02-04T03:21:26;10.50;52.70
9118;DHT22;4594;50.994;7.126;2023-02-04T03:23:53;10.50;52.80
9118;DHT22;4594;50.994;7.126;2023-02-04T03:26:24;10.50;53.10
9118;DHT22;4594;50.994;7.126;2023-02-04T03:28:52;10.50;52.80
9118;DHT22;4594;50.994;7.126;2023-02-04T03:31:19;10.50;52.80
9118;DHT22;4594;50.994;7.126;2023-02-04T03:33:45;10.50;52.90
9118;DHT22;4594;50.994;7.126;2023-02-04T03:36:11;10.50;52.90
9118;DHT22;4594;50.994;7.126;2023-02-04T03:38:37;10.50;52.90
9118;DHT22;4594;50.994;7.126;2023-02-04T03:41:03;10.50;53.00
9118;DHT22;4594;50.994;7.126;2023-02-04T03:43:29;10.50;53.10
9118;DHT22;4594;50.994;7.126;2023-02-04T03:45:54;10.50;53.10
9118;DHT22;4594;50.994;7.126;2023-02-04T03:48:20;10.50;53.10
9118;DHT22;4594;50.994;7.126;2023-02-04T03:50:46;10.50;53.10
9118;DHT22;4594;50.994;7.126;2023-02-04T03:53:12;10.50;53.10
9118;DHT22;4594;50.994;7.126;2023-02-04T03:55:37;10.50;53.20
9118;DHT22;4594;50.994;7.126;2023-02-04T03:58:03;10.50;53.20
9118;DHT22;4594;50.994;7.126;2023-02-04T04:00:30;10.50;53.20
9118;DHT22;4594;50.994;7.126;2023-02-04T04:02:57;10.50;53.20
9118;DHT22;4594;50.994;7.126;2023-02-04T04:05:23;10.50;53.20
9118;DHT22;4594;50.994;7.126;2023-02-04T04:07:49;10.50;53.20
9118;DHT22;4594;50.994;7.126;2023-02-04T04:10:15;10.50;53.20
9118;DHT22;4594;50.994;7.126;2023-02-04T04:12:41;10.50;53.20
9118;DHT22;4594;50.994;7.126;2023-02-04T04:15:07;10.40;53.10
9118;DHT22;4594;50.994;7.126;2023-02-04T04:17:33;10.50;53.20
9118;DHT22;4594;50.994;7.126;2023-02-04T04:19:59;10.50;53.20
9118;DHT22;4594;50.994;7.126;2023-02-04T04:22:25;10.40;53.20
9118;DHT22;4594;50.994;7.126;2023-02-04T04:24:50;10.40;53.20
9118;DHT22;4594;50.994;7.126;2023-02-04T04:27:16;10.40;53.20
9118;DHT22;4594;50.994;7.126;2023-02-04T04:29:42;10.50;53.20
9118;DHT22;4594;50.994;7.126;2023-02-04T04:32:07;10.40;53.20
9118;DHT22;4594;50.994;7.126;2023-02-04T04:34:34;10.40;53.20
9118;DHT22;4594;50.994;7.126;2023-02-04T04:37:00;10.40;53.20
9118;DHT22;4594;50.994;7.126;2023-02-04T04:39:26;10.40;53.20
9118;DHT22;4594;50.994;7.126;2023-02-04T04:41:51;10.40;53.20
9118;DHT22;4594;50.994;7.126;2023-02-04T04:44:17;10.40;53.30
9118;DHT22;4594;50.994;7.126;2023-02-04T04:46:43;10.40;53.30
9118;DHT22;4594;50.994;7.126;2023-02-04T04:49:08;10.40;53.30
9118;DHT22;4594;50.994;7.126;2023-02-04T04:51:34;10.40;53.30
9118;DHT22;4594;50.994;7.126;2023-02-04T04:54:00;10.40;53.30
9118;DHT22;4594;50.994;7.126;2023-02-04T04:56:25;10.40;53.40
9118;DHT22;4594;50.994;7.126;2023-02-04T04:58:51;10.40;53.40
9118;DHT22;4594;50.994;7.126;2023-02-04T05:01:17;10.40;53.40
9118;DHT22;4594;50.994;7.126;2023-02-04T05:03:43;10.40;53.30
9118;DHT22;4594;50.994;7.126;2023-02-04T05:06:08;10.40;53.30
9118;DHT22;4594;50.994;7.126;2023-02-04T05:08:35;10.40;53.40
9118;DHT22;4594;50.994;7.126;2023-02-04T05:11:01;10.50;53.50
9118;DHT22;4594;50.994;7.126;2023-02-04T05:13:28;10.50;53.50
9118;DHT22;4594;50.994;7.126;2023-02-04T05:15:54;10.40;53.40
9118;DHT22;4594;50.994;7.126;2023-02-04T05:18:19;10.40;53.40
9118;DHT22;4594;50.994;7.126;2023-02-04T05:20:45;10.40;53.40
9118;DHT22;4594;50.994;7.126;2023-02-04T05:23:11;10.40;53.40
9118;DHT22;4594;50.994;7.126;2023-02-04T05:25:36;10.50;53.40
9118;DHT22;4594;50.994;7.126;2023-02-04T05:28:02;10.40;53.40
9118;DHT22;4594;50.994;7.126;2023-02-04T05:30:28;10.40;53.40
9118;DHT22;4594;50.994;7.126;2023-02-04T05:32:54;10.40;53.40
9118;DHT22;4594;50.994;7.126;2023-02-04T05:35:20;10.40;53.40
9118;DHT22;4594;50.994;7.126;2023-02-04T05:37:45;10.40;53.40
9118;DHT22;4594;50.994;7.126;2023-02-04T05:40:11;10.40;53.40
9118;DHT22;4594;50.994;7.126;2023-02-04T05:42:37;10.40;53.40
9118;DHT22;4594;50.994;7.126;2023-02-04T05:45:04;10.40;53.50
9118;DHT22;4594;50.994;7.126;2023-02-04T05:47:30;10.40;53.50
9118;DHT22;4594;50.994;7.126;2023-02-04T05:49:55;10.40;53.50
9118;DHT22;4594;50.994;7.126;2023-02-04T05:52:21;10.40;53.50
9118;DHT22;4594;50.994;7.126;2023-02-04T05:54:47;10.40;53.50
9118;DHT22;4594;50.994;7.126;2023-02-04T05:57:12;10.40;53.60
9118;DHT22;4594;50.994;7.126;2023-02-04T05:59:38;10.40;53.60
9118;DHT22;4594;50.994;7.126;2023-02-04T06:02:03;10.40;53.60
9118;DHT22;4594;50.994;7.126;2023-02-04T06:04:29;10.40;53.60
9118;DHT22;4594;50.994;7.126;2023-02-04T06:06:55;10.40;53.60
9118;DHT22;4594;50.994;7.126;2023-02-04T06:09:21;10.40;53.70
9118;DHT22;4594;50.994;7.126;2023-02-04T06:11:46;10.40;53.80
9118;DHT22;4594;50.994;7.126;2023-02-04T06:14:12;10.40;53.90
9118;DHT22;4594;50.994;7.126;2023-02-04T06:16:37;10.40;53.90
9118;DHT22;4594;50.994;7.126;2023-02-04T06:19:03;10.40;53.90
9118;DHT22;4594;50.994;7.126;2023-02-04T06:21:29;10.50;54.00
9118;DHT22;4594;50.994;7.126;2023-02-04T06:23:55;10.50;53.90
9118;DHT22;4594;50.994;7.126;2023-02-04T06:26:20;10.50;53.90
9118;DHT22;4594;50.994;7.126;2023-02-04T06:28:46;10.50;53.90
9118;DHT22;4594;50.994;7.126;2023-02-04T06:31:12;10.50;53.80
9118;DHT22;4594;50.994;7.126;2023-02-04T06:33:37;10.50;53.80
9118;DHT22;4594;50.994;7.126;2023-02-04T06:36:03;10.50;53.80
9118;DHT22;4594;50.994;7.126;2023-02-04T06:38:29;10.50;53.80
9118;DHT22;4594;50.994;7.126;2023-02-04T06:40:55;10.50;53.80
9118;DHT22;4594;50.994;7.126;2023-02-04T06:43:21;10.50;53.90
9118;DHT22;4594;50.994;7.126;2023-02-04T06:45:49;10.50;53.90
9118;DHT22;4594;50.994;7.126;2023-02-04T06:48:16;10.50;53.90
9118;DHT22;4594;50.994;7.126;2023-02-04T06:50:42;10.60;54.00
9118;DHT22;4594;50.994;7.126;2023-02-04T06:53:08;10.50;53.90
9118;DHT22;4594;50.994;7.126;2023-02-04T06:55:33;10.60;53.90
9118;DHT22;4594;50.994;7.126;2023-02-04T06:57:59;10.60;54.00
9118;DHT22;4594;50.994;7.126;2023-02-04T07:00:25;10.60;53.90
9118;DHT22;4594;50.994;7.126;2023-02-04T07:02:51;10.60;53.90
9118;DHT22;4594;50.994;7.126;2023-02-04T07:05:17;10.60;53.80
9118;DHT22;4594;50.994;7.126;2023-02-04T07:07:43;10.60;53.80
9118;DHT22;4594;50.994;7.126;2023-02-04T07:10:09;10.60;53.80
9118;DHT22;4594;50.994;7.126;2023-02-04T07:12:34;10.60;53.70
9118;DHT22;4594;50.994;7.126;2023-02-04T07:15:00;10.50;53.60
9118;DHT22;4594;50.994;7.126;2023-02-04T07:17:26;10.50;53.60
9118;DHT22;4594;50.994;7.126;2023-02-04T07:19:51;10.50;53.60
9118;DHT22;4594;50.994;7.126;2023-02-04T07:22:17;10.50;53.70
9118;DHT22;4594;50.994;7.126;2023-02-04T07:24:43;10.50;53.80
9118;DHT22;4594;50.994;7.126;2023-02-04T07:27:09;10.50;53.80
9118;DHT22;4594;50.994;7.126;2023-02-04T07:29:34;10.50;53.90
9118;DHT22;4594;50.994;7.126;2023-02-04T07:32:00;10.40;53.80
9118;DHT22;4594;50.994;7.126;2023-02-04T07:34:26;10.50;53.90
9118;DHT22;4594;50.994;7.126;2023-02-04T07:36:51;10.50;53.90
9118;DHT22;4594;50.994;7.126;2023-02-04T07:39:17;10.50;53.80
9118;DHT22;4594;50.994;7.126;2023-02-04T07:41:43;10.50;53.80
9118;DHT22;4594;50.994;7.126;2023-02-04T07:44:09;10.60;53.90
9118;DHT22;4594;50.994;7.126;2023-02-04T07:46:34;10.60;53.90
9118;DHT22;4594;50.994;7.126;2023-02-04T07:49:00;10.60;53.90
9118;DHT22;4594;50.994;7.126;2023-02-04T07:51:26;10.60;53.90
9118;DHT22;4594;50.994;7.126;2023-02-04T07:53:51;10.60;54.00
9118;DHT22;4594;50.994;7.126;2023-02-04T07:56:17;10.70;54.10
9118;DHT22;4594;50.994;7.126;2023-02-04T07:58:43;10.60;54.00
9118;DHT22;4594;50.994;7.126;2023-02-04T08:01:08;10.60;54.10
9118;DHT22;4594;50.994;7.126;2023-02-04T08:03:34;10.60;54.10
9118;DHT22;4594;50.994;7.126;2023-02-04T08:06:00;10.60;54.20
9118;DHT22;4594;50.994;7.126;2023-02-04T08:08:26;10.70;54.30
9118;DHT22;4594;50.994;7.126;2023-02-04T08:10:52;10.70;54.20
9118;DHT22;4594;50.994;7.126;2023-02-04T08:13:17;10.70;54.20
9118;DHT22;4594;50.994;7.126;2023-02-04T08:15:43;10.70;54.20
9118;DHT22;4594;50.994;7.126;2023-02-04T08:18:08;10.70;54.20
9118;DHT22;4594;50.994;7.126;2023-02-04T08:20:34;10.70;54.20
9118;DHT22;4594;50.994;7.126;2023-02-04T08:23:00;10.70;54.30
9118;DHT22;4594;50.994;7.126;2023-02-04T08:25:25;10.80;54.40
9118;DHT22;4594;50.994;7.126;2023-02-04T08:27:53;10.80;54.40
9118;DHT22;4594;50.994;7.126;2023-02-04T08:30:18;10.80;54.40
9118;DHT22;4594;50.994;7.126;2023-02-04T08:32:44;10.80;54.40
9118;DHT22;4594;50.994;7.126;2023-02-04T08:35:10;10.90;54.50
9118;DHT22;4594;50.994;7.126;2023-02-04T08:37:36;10.90;54.50
9118;DHT22;4594;50.994;7.126;2023-02-04T08:40:03;10.90;54.50
9118;DHT22;4594;50.994;7.126;2023-02-04T08:42:29;11.00;54.60
9118;DHT22;4594;50.994;7.126;2023-02-04T08:44:55;11.00;54.60
9118;DHT22;4594;50.994;7.126;2023-02-04T08:47:20;11.00;54.60
9118;DHT22;4594;50.994;7.126;2023-02-04T08:49:46;11.00;54.70
9118;DHT22;4594;50.994;7.126;2023-02-04T08:52:12;11.10;54.80
9118;DHT22;4594;50.994;7.126;2023-02-04T08:54:37;11.10;54.80
9118;DHT22;4594;50.994;7.126;2023-02-04T08:57:03;11.30;55.00
9118;DHT22;4594;50.994;7.126;2023-02-04T08:59:29;11.20;54.90
9118;DHT22;4594;50.994;7.126;2023-02-04T09:01:55;11.20;54.90
9118;DHT22;4594;50.994;7.126;2023-02-04T09:04:22;11.30;55.00
9118;DHT22;4594;50.994;7.126;2023-02-04T09:06:49;11.30;54.90
9118;DHT22;4594;50.994;7.126;2023-02-04T09:09:15;11.40;55.00
9118;DHT22;4594;50.994;7.126;2023-02-04T09:11:41;11.40;55.00
9118;DHT22;4594;50.994;7.126;2023-02-04T09:14:08;11.50;55.00
9118;DHT22;4594;50.994;7.126;2023-02-04T09:16:34;11.50;55.10
9118;DHT22;4594;50.994;7.126;2023-02-04T09:19:00;11.60;55.10
9118;DHT22;4594;50.994;7.126;2023-02-04T09:21:27;11.60;55.10
9118;DHT22;4594;50.994;7.126;2023-02-04T09:23:53;11.70;55.20
9118;DHT22;4594;50.994;7.126;2023-02-04T09:26:19;11.70;55.20
9118;DHT22;4594;50.994;7.126;2023-02-04T09:28:45;11.70;55.20
9118;DHT22;4594;50.994;7.126;2023-02-04T09:31:12;11.80;55.20
9118;DHT22;4594;50.994;7.126;2023-02-04T09:33:38;11.90;55.10
9118;DHT22;4594;50.994;7.126;2023-02-04T09:36:04;11.90;55.00
9118;DHT22;4594;50.994;7.126;2023-02-04T09:38:30;11.90;54.80
9118;DHT22;4594;50.994;7.126;2023-02-04T09:41:05;12.00;54.80
9118;DHT22;4594;50.994;7.126;2023-02-04T09:43:37;12.00;54.00
9118;DHT22;4594;50.994;7.126;2023-02-04T09:46:08;12.00;54.40
9118;DHT22;4594;50.994;7.126;2023-02-04T09:48:44;12.10;54.60
9118;DHT22;4594;50.994;7.126;2023-02-04T09:51:21;12.10;54.70
9118;DHT22;4594;50.994;7.126;2023-02-04T09:53:50;12.10;54.20
9118;DHT22;4594;50.994;7.126;2023-02-04T09:56:18;12.10;54.80
9118;DHT22;4594;50.994;7.126;2023-02-04T09:58:44;12.20;54.90
9118;DHT22;4594;50.994;7.126;2023-02-04T10:01:18;12.20;54.90
9118;DHT22;4594;50.994;7.126;2023-02-04T10:03:46;12.20;54.70
9118;DHT22;4594;50.994;7.126;2023-02-04T10:06:16;12.30;54.80
9118;DHT22;4594;50.994;7.126;2023-02-04T10:08:45;12.30;54.90
9118;DHT22;4594;50.994;7.126;2023-02-04T10:11:12;12.40;55.00
9118;DHT22;4594;50.994;7.126;2023-02-04T10:13:45;12.40;54.90
9118;DHT22;4594;50.994;7.126;2023-02-04T10:16:23;12.50;54.40
9118;DHT22;4594;50.994;7.126;2023-02-04T10:18:58;12.60;54.30
9118;DHT22;4594;50.994;7.126;2023-02-04T10:21:31;12.60;54.80
9118;DHT22;4594;50.994;7.126;2023-02-04T10:24:03;12.60;54.30
9118;DHT22;4594;50.994;7.126;2023-02-04T10:26:31;12.70;54.70
9118;DHT22;4594;50.994;7.126;2023-02-04T10:29:03;12.70;54.60
9118;DHT22;4594;50.994;7.126;2023-02-04T10:31:37;12.70;54.40
9118;DHT22;4594;50.994;7.126;2023-02-04T10:34:18;12.80;54.00
9118;DHT22;4594;50.994;7.126;2023-02-04T10:36:53;12.80;53.20
9118;DHT22;4594;50.994;7.126;2023-02-04T10:39:24;12.80;54.00
9118;DHT22;4594;50.994;7.126;2023-02-04T10:41:53;12.80;54.10
9118;DHT22;4594;50.994;7.126;2023-02-04T10:44:35;12.90;54.30
9118;DHT22;4594;50.994;7.126;2023-02-04T10:49:32;12.90;54.20
9118;DHT22;4594;50.994;7.126;2023-02-04T10:51:57;13.00;54.40
9118;DHT22;4594;50.994;7.126;2023-02-04T10:54:31;13.10;54.70
9118;DHT22;4594;50.994;7.126;2023-02-04T10:57:17;13.10;54.40
9118;DHT22;4594;50.994;7.126;2023-02-04T10:59:55;13.10;54.10
9118;DHT22;4594;50.994;7.126;2023-02-04T11:02:39;13.10;54.60
9118;DHT22;4594;50.994;7.126;2023-02-04T11:05:12;13.20;53.70
9118;DHT22;4594;50.994;7.126;2023-02-04T11:07:38;13.30;54.60
9118;DHT22;4594;50.994;7.126;2023-02-04T11:10:04;13.40;54.80
9118;DHT22;4594;50.994;7.126;2023-02-04T11:15:47;13.40;53.00
9118;DHT22;4594;50.994;7.126;2023-02-04T11:20:47;13.50;53.30
9118;DHT22;4594;50.994;7.126;2023-02-04T11:28:50;13.60;53.10
9118;DHT22;4594;50.994;7.126;2023-02-04T11:33:49;13.70;53.80
9118;DHT22;4594;50.994;7.126;2023-02-04T11:36:26;13.70;53.20
9118;DHT22;4594;50.994;7.126;2023-02-04T11:38:52;13.70;53.10
9118;DHT22;4594;50.994;7.126;2023-02-04T11:41:26;13.70;53.00
9118;DHT22;4594;50.994;7.126;2023-02-04T11:43:55;13.60;51.70
9118;DHT22;4594;50.994;7.126;2023-02-04T11:46:22;13.70;52.60
9118;DHT22;4594;50.994;7.126;2023-02-04T11:48:56;13.70;52.50
9118;DHT22;4594;50.994;7.126;2023-02-04T11:51:29;13.70;51.90
9118;DHT22;4594;50.994;7.126;2023-02-04T11:53:56;13.70;52.00
9118;DHT22;4594;50.994;7.126;2023-02-04T11:56:22;13.70;52.60
9118;DHT22;4594;50.994;7.126;2023-02-04T11:58:55;13.70;52.60
9118;DHT22;4594;50.994;7.126;2023-02-04T12:01:24;13.80;52.20
9118;DHT22;4594;50.994;7.126;2023-02-04T12:04:00;13.60;52.30
9118;DHT22;4594;50.994;7.126;2023-02-04T12:06:33;13.60;52.30
9118;DHT22;4594;50.994;7.126;2023-02-04T12:09:24;13.70;52.50
9118;DHT22;4594;50.994;7.126;2023-02-04T12:11:53;13.70;51.50
9118;DHT22;4594;50.994;7.126;2023-02-04T12:14:21;13.70;52.70
9118;DHT22;4594;50.994;7.126;2023-02-04T12:16:52;13.80;52.80
9118;DHT22;4594;50.994;7.126;2023-02-04T12:19:20;13.80;52.70
9118;DHT22;4594;50.994;7.126;2023-02-04T12:21:46;13.80;52.60
9118;DHT22;4594;50.994;7.126;2023-02-04T12:24:12;13.90;52.60
9118;DHT22;4594;50.994;7.126;2023-02-04T12:26:38;13.90;52.70
9118;DHT22;4594;50.994;7.126;2023-02-04T12:29:04;13.90;52.50
9118;DHT22;4594;50.994;7.126;2023-02-04T12:31:30;13.90;52.40
9118;DHT22;4594;50.994;7.126;2023-02-04T12:33:58;14.00;52.30
9118;DHT22;4594;50.994;7.126;2023-02-04T12:36:24;13.90;52.10
9118;DHT22;4594;50.994;7.126;2023-02-04T12:38:52;14.10;52.30
9118;DHT22;4594;50.994;7.126;2023-02-04T12:41:18;13.90;52.00
9118;DHT22;4594;50.994;7.126;2023-02-04T12:43:44;13.80;51.90
9118;DHT22;4594;50.994;7.126;2023-02-04T12:46:11;13.80;51.80
9118;DHT22;4594;50.994;7.126;2023-02-04T12:48:36;13.90;51.90
9118;DHT22;4594;50.994;7.126;2023-02-04T12:51:06;13.90;51.80
9118;DHT22;4594;50.994;7.126;2023-02-04T12:53:32;13.80;51.60
9118;DHT22;4594;50.994;7.126;2023-02-04T12:55:58;13.80;51.70
9118;DHT22;4594;50.994;7.126;2023-02-04T12:58:24;14.00;51.80
9118;DHT22;4594;50.994;7.126;2023-02-04T13:00:49;14.00;51.80
9118;DHT22;4594;50.994;7.126;2023-02-04T13:03:15;13.80;51.40
9118;DHT22;4594;50.994;7.126;2023-02-04T13:05:41;13.90;51.30
9118;DHT22;4594;50.994;7.126;2023-02-04T13:08:07;13.80;51.40
9118;DHT22;4594;50.994;7.126;2023-02-04T13:10:33;13.90;51.60
9118;DHT22;4594;50.994;7.126;2023-02-04T13:12:58;13.80;51.40
9118;DHT22;4594;50.994;7.126;2023-02-04T13:15:25;13.90;51.50
9118;DHT22;4594;50.994;7.126;2023-02-04T13:17:51;13.90;51.50
9118;DHT22;4594;50.994;7.126;2023-02-04T13:20:17;13.90;51.50
9118;DHT22;4594;50.994;7.126;2023-02-04T13:22:43;13.90;51.30
9118;DHT22;4594;50.994;7.126;2023-02-04T13:25:10;14.00;51.30
9118;DHT22;4594;50.994;7.126;2023-02-04T13:27:36;14.00;51.20
9118;DHT22;4594;50.994;7.126;2023-02-04T13:30:04;13.90;51.10
9118;DHT22;4594;50.994;7.126;2023-02-04T13:32:32;13.90;50.90
9118;DHT22;4594;50.994;7.126;2023-02-04T13:34:57;14.00;50.90
9118;DHT22;4594;50.994;7.126;2023-02-04T13:37:23;14.00;50.90
9118;DHT22;4594;50.994;7.126;2023-02-04T13:39:49;14.00;50.90
9118;DHT22;4594;50.994;7.126;2023-02-04T13:42:15;14.00;50.80
9118;DHT22;4594;50.994;7.126;2023-02-04T13:44:40;14.10;50.70
9118;DHT22;4594;50.994;7.126;2023-02-04T13:47:06;14.00;50.60
9118;DHT22;4594;50.994;7.126;2023-02-04T13:49:32;14.00;50.50
9118;DHT22;4594;50.994;7.126;2023-02-04T13:51:57;13.90;50.40
9118;DHT22;4594;50.994;7.126;2023-02-04T13:54:23;14.00;50.30
9118;DHT22;4594;50.994;7.126;2023-02-04T13:56:49;14.10;50.20
9118;DHT22;4594;50.994;7.126;2023-02-04T13:59:15;14.10;50.10
9118;DHT22;4594;50.994;7.126;2023-02-04T14:01:41;14.00;49.80
9118;DHT22;4594;50.994;7.126;2023-02-04T14:04:06;14.10;49.60
9118;DHT22;4594;50.994;7.126;2023-02-04T14:06:32;14.10;49.50
9118;DHT22;4594;50.994;7.126;2023-02-04T14:09:02;14.10;49.50
9118;DHT22;4594;50.994;7.126;2023-02-04T14:11:29;14.00;49.30
9118;DHT22;4594;50.994;7.126;2023-02-04T14:13:55;14.00;49.10
9118;DHT22;4594;50.994;7.126;2023-02-04T14:16:21;14.00;49.00
9118;DHT22;4594;50.994;7.126;2023-02-04T14:18:47;14.00;48.80
9118;DHT22;4594;50.994;7.126;2023-02-04T14:21:12;13.90;48.50
9118;DHT22;4594;50.994;7.126;2023-02-04T14:23:38;13.90;48.30
9118;DHT22;4594;50.994;7.126;2023-02-04T14:26:04;13.80;48.30
9118;DHT22;4594;50.994;7.126;2023-02-04T14:28:30;13.80;48.00
9118;DHT22;4594;50.994;7.126;2023-02-04T14:30:55;13.80;48.00
9118;DHT22;4594;50.994;7.126;2023-02-04T14:33:21;13.60;47.70
9118;DHT22;4594;50.994;7.126;2023-02-04T14:35:47;13.50;47.50
9118;DHT22;4594;50.994;7.126;2023-02-04T14:38:13;13.50;47.60
9118;DHT22;4594;50.994;7.126;2023-02-04T14:40:41;13.40;47.50
9118;DHT22;4594;50.994;7.126;2023-02-04T14:43:07;13.30;47.40
9118;DHT22;4594;50.994;7.126;2023-02-04T14:45:36;13.20;47.30
9118;DHT22;4594;50.994;7.126;2023-02-04T14:48:03;13.10;47.40
9118;DHT22;4594;50.994;7.126;2023-02-04T14:50:29;13.10;47.20
9118;DHT22;4594;50.994;7.126;2023-02-04T14:52:55;13.00;47.20
9118;DHT22;4594;50.994;7.126;2023-02-04T14:55:25;12.90;47.00
9118;DHT22;4594;50.994;7.126;2023-02-04T14:57:51;12.90;47.00
9118;DHT22;4594;50.994;7.126;2023-02-04T15:00:18;12.80;46.90
9118;DHT22;4594;50.994;7.126;2023-02-04T15:02:45;12.70;46.90
9118;DHT22;4594;50.994;7.126;2023-02-04T15:05:12;12.60;46.90
9118;DHT22;4594;50.994;7.126;2023-02-04T15:07:39;12.60;47.00
9118;DHT22;4594;50.994;7.126;2023-02-04T15:10:06;12.50;47.00
9118;DHT22;4594;50.994;7.126;2023-02-04T15:12:33;12.40;47.00
9118;DHT22;4594;50.994;7.126;2023-02-04T15:14:59;12.40;46.90
9118;DHT22;4594;50.994;7.126;2023-02-04T15:17:24;12.40;46.90
9118;DHT22;4594;50.994;7.126;2023-02-04T15:19:50;12.40;46.90
9118;DHT22;4594;50.994;7.126;2023-02-04T15:22:16;12.30;46.70
9118;DHT22;4594;50.994;7.126;2023-02-04T15:24:41;12.30;46.80
9118;DHT22;4594;50.994;7.126;2023-02-04T15:27:07;12.20;46.70
9118;DHT22;4594;50.994;7.126;2023-02-04T15:29:33;12.20;46.90
9118;DHT22;4594;50.994;7.126;2023-02-04T15:31:59;12.10;46.90
9118;DHT22;4594;50.994;7.126;2023-02-04T15:34:24;12.10;46.90
9118;DHT22;4594;50.994;7.126;2023-02-04T15:36:50;12.30;47.00
9118;DHT22;4594;50.994;7.126;2023-02-04T15:39:16;12.00;46.70
9118;DHT22;4594;50.994;7.126;2023-02-04T15:41:41;12.00;46.70
9118;DHT22;4594;50.994;7.126;2023-02-04T15:44:07;11.90;46.60
9118;DHT22;4594;50.994;7.126;2023-02-04T15:46:33;11.90;46.60
9118;DHT22;4594;50.994;7.126;2023-02-04T15:49:02;11.90;46.60
9118;DHT22;4594;50.994;7.126;2023-02-04T15:51:28;11.80;46.50
9118;DHT22;4594;50.994;7.126;2023-02-04T15:53:54;11.80;46.50
9118;DHT22;4594;50.994;7.126;2023-02-04T15:56:20;11.70;46.50
9118;DHT22;4594;50.994;7.126;2023-02-04T15:58:47;11.70;46.50
9118;DHT22;4594;50.994;7.126;2023-02-04T16:01:12;11.60;46.80
9118;DHT22;4594;50.994;7.126;2023-02-04T16:03:40;11.50;46.50
9118;DHT22;4594;50.994;7.126;2023-02-04T16:06:09;11.40;46.50
9118;DHT22;4594;50.994;7.126;2023-02-04T16:08:35;11.40;46.50
9118;DHT22;4594;50.994;7.126;2023-02-04T16:11:01;11.40;46.50
9118;DHT22;4594;50.994;7.126;2023-02-04T16:13:27;11.30;46.50
9118;DHT22;4594;50.994;7.126;2023-02-04T16:15:53;11.20;46.40
9118;DHT22;4594;50.994;7.126;2023-02-04T16:18:19;11.20;46.50